Time;durP1;ratioP1;P1;durP2;ratioP2;P2;SDS_P1;SDS_P2;PMS_P1;PMS_P2;Temp;Humidity;BMP_temperature;BMP_pressure;BME280_temperature;BME280_humidity;BME280_pressure;Samples;Min_cycle;Max_cycle;Signal;HPM_P1;HPM_P2
2021/07/28 00:00:37;;;;;;;16.90;12.98;;;16.20;99.90;;;;;;5013175;28;20088;-76
2021/07/28 00:03:03;;;;;;;21.08;13.88;;;15.60;99.90;;;;;;5012868;28;20022;-76
2021/07/28 00:05:28;;;;;;;15.18;12.40;;;15.60;99.90;;;;;;5013564;28;20038;-76
2021/07/28 00:07:54;;;;;;;22.15;13.55;;;15.60;99.90;;;;;;5013052;28;20512;-76
2021/07/28 00:10:20;;;;;;;19.08;13.50;;;15.60;99.90;;;;;;5011700;28;20041;-77
2021/07/28 00:12:46;;;;;;;18.15;13.07;;;15.60;99.90;;;;;;5012705;28;20025;-77
2021/07/28 00:15:12;;;;;;;17.05;12.93;;;15.60;99.90;;;;;;5013121;28;20163;-77
2021/07/28 00:17:44;;;;;;;19.02;13.90;;;15.60;99.90;;;;;;5012356;28;20061;-75
2021/07/28 00:20:16;;;;;;;16.92;13.30;;;15.50;99.90;;;;;;5013199;28;20088;-77
2021/07/28 00:25:44;;;;;;;20.70;14.73;;;15.60;99.90;;;;;;4971133;28;20533;-76
2021/07/28 00:28:11;;;;;;;21.05;14.07;;;15.60;99.90;;;;;;5002496;28;20112;-77
2021/07/28 00:30:37;;;;;;;18.23;15.05;;;15.50;99.90;;;;;;5012856;28;20022;-75
2021/07/28 00:33:03;;;;;;;17.02;13.30;;;15.50;99.90;;;;;;5011805;28;20550;-77
2021/07/28 00:35:29;;;;;;;19.17;14.57;;;15.50;99.90;;;;;;5013130;28;20108;-77
2021/07/28 00:37:55;;;;;;;20.85;15.90;;;15.50;99.90;;;;;;5012479;28;20026;-77
2021/07/28 00:40:24;;;;;;;23.42;14.82;;;15.50;99.90;;;;;;5013393;28;20046;-76
2021/07/28 00:42:49;;;;;;;19.45;14.63;;;15.50;99.90;;;;;;5012549;28;20038;-77
2021/07/28 00:45:15;;;;;;;23.23;15.70;;;15.40;99.90;;;;;;5012683;28;20033;-77
2021/07/28 00:47:40;;;;;;;18.98;15.45;;;15.40;99.90;;;;;;5012667;28;20054;-76
2021/07/28 00:50:07;;;;;;;20.30;14.30;;;15.40;99.90;;;;;;5013128;28;20029;-75
2021/07/28 00:52:37;;;;;;;18.30;14.50;;;15.40;99.90;;;;;;5012090;28;20429;-76
2021/07/28 00:55:07;;;;;;;24.88;15.65;;;15.40;99.90;;;;;;5013573;28;20022;-77
2021/07/28 00:57:33;;;;;;;18.95;14.80;;;15.40;99.90;;;;;;5012456;28;20034;-77
2021/07/28 01:00:00;;;;;;;20.42;15.23;;;15.40;99.90;;;;;;5011275;28;20044;-77
2021/07/28 01:02:25;;;;;;;21.85;14.80;;;15.30;99.90;;;;;;5012387;28;20030;-76
2021/07/28 01:04:51;;;;;;;21.05;15.40;;;15.30;99.90;;;;;;5011496;28;20026;-75
2021/07/28 01:07:17;;;;;;;17.55;12.90;;;15.30;99.90;;;;;;5012245;28;20034;-77
2021/07/28 01:09:42;;;;;;;19.35;14.10;;;15.30;99.90;;;;;;5013099;28;20136;-76
2021/07/28 01:12:08;;;;;;;19.58;14.35;;;15.30;99.90;;;;;;5012682;28;20451;-77
2021/07/28 01:14:34;;;;;;;20.90;14.80;;;15.30;99.90;;;;;;5011601;28;20029;-77
2021/07/28 01:16:59;;;;;;;18.30;13.90;;;15.30;99.90;;;;;;5012505;28;20089;-75
2021/07/28 01:19:34;;;;;;;21.33;14.10;;;15.30;99.90;;;;;;5012208;28;20109;-75
2021/07/28 01:22:02;;;;;;;18.83;14.82;;;15.30;99.90;;;;;;5013222;28;20026;-76
2021/07/28 01:24:28;;;;;;;19.08;14.80;;;15.30;99.90;;;;;;5016274;28;20045;-76
2021/07/28 01:26:56;;;;;;;22.15;14.52;;;15.30;99.90;;;;;;5015630;28;20037;-76
2021/07/28 01:29:23;;;;;;;26.20;15.02;;;15.30;99.90;;;;;;5015000;28;20026;-76
2021/07/28 01:31:49;;;;;;;19.27;14.95;;;15.30;99.90;;;;;;5015704;28;20077;-76
2021/07/28 01:34:15;;;;;;;21.05;14.90;;;15.30;99.90;;;;;;5016252;28;20063;-76
2021/07/28 01:36:43;;;;;;;21.48;15.70;;;15.30;99.90;;;;;;5015137;28;20104;-77
2021/07/28 01:39:09;;;;;;;22.15;16.15;;;15.30;99.90;;;;;;5016348;28;20022;-77
2021/07/28 01:41:35;;;;;;;21.00;15.88;;;15.30;99.90;;;;;;5014737;28;20122;-75
2021/07/28 01:44:00;;;;;;;24.63;16.85;;;15.40;99.90;;;;;;5015101;28;20026;-75
2021/07/28 01:46:26;;;;;;;20.02;15.65;;;15.40;99.90;;;;;;5014955;28;20053;-76
2021/07/28 01:48:51;;;;;;;23.65;16.27;;;15.40;99.90;;;;;;5014097;28;20088;-76
2021/07/28 01:51:17;;;;;;;20.98;16.40;;;15.50;99.90;;;;;;5015586;28;20018;-76
2021/07/28 01:53:43;;;;;;;25.05;17.00;;;15.50;99.90;;;;;;5015377;28;20105;-77
2021/07/28 01:56:09;;;;;;;24.90;17.48;;;15.60;99.90;;;;;;5015028;28;20026;-77
2021/07/28 01:58:38;;;;;;;22.38;17.13;;;15.60;99.90;;;;;;5015438;28;20469;-76
2021/07/28 02:01:04;;;;;;;24.70;16.63;;;15.70;99.90;;;;;;5015410;28;20037;-76
2021/07/28 02:03:29;;;;;;;25.00;16.90;;;15.70;99.90;;;;;;5015725;28;20018;-77
2021/07/28 02:05:55;;;;;;;23.45;16.38;;;15.80;99.90;;;;;;5015474;28;20394;-76
2021/07/28 02:08:20;;;;;;;25.27;17.33;;;15.80;99.90;;;;;;5015759;28;20022;-76
2021/07/28 02:10:49;;;;;;;24.48;17.27;;;15.80;99.90;;;;;;5014660;28;20029;-76
2021/07/28 02:13:18;;;;;;;24.15;16.13;;;15.70;99.90;;;;;;5015252;28;20062;-78
2021/07/28 02:15:45;;;;;;;23.30;15.50;;;15.70;99.90;;;;;;5015012;28;20083;-77
2021/07/28 02:18:11;;;;;;;22.70;15.25;;;15.70;99.90;;;;;;5014452;28;20026;-77
2021/07/28 02:20:37;;;;;;;24.45;17.30;;;15.70;99.90;;;;;;5015205;28;20389;-77
2021/07/28 02:23:03;;;;;;;31.63;17.17;;;15.70;99.90;;;;;;5015022;28;20104;-76
2021/07/28 02:25:29;;;;;;;24.08;15.90;;;15.60;99.90;;;;;;5014316;28;20026;-76
2021/07/28 02:27:55;;;;;;;28.40;16.95;;;15.70;99.90;;;;;;5014822;28;20026;-75
2021/07/28 02:30:20;;;;;;;23.95;16.88;;;15.70;99.90;;;;;;5014581;28;20056;-77
2021/07/28 02:32:46;;;;;;;23.75;16.52;;;15.60;99.90;;;;;;5013468;28;20100;-76
2021/07/28 02:35:12;;;;;;;29.85;17.65;;;15.60;99.90;;;;;;5015193;28;20022;-74
2021/07/28 02:37:41;;;;;;;24.85;16.70;;;15.90;99.90;;;;;;5013487;28;20067;-76
2021/07/28 02:40:08;;;;;;;26.88;16.80;;;15.60;99.90;;;;;;5013522;28;20065;-76
2021/07/28 02:42:33;;;;;;;25.33;16.60;;;15.60;99.90;;;;;;5014079;28;20478;-76
2021/07/28 02:44:59;;;;;;;30.73;17.23;;;15.60;99.90;;;;;;5013729;28;20041;-76
2021/07/28 02:47:25;;;;;;;25.48;16.27;;;15.60;99.90;;;;;;5014513;28;20132;-76
2021/07/28 02:49:50;;;;;;;24.98;16.73;;;15.70;99.90;;;;;;5014357;28;20509;-76
2021/07/28 02:52:18;;;;;;;24.08;16.48;;;15.70;99.90;;;;;;5014108;28;20018;-75
2021/07/28 02:54:43;;;;;;;24.65;16.92;;;15.80;99.90;;;;;;5014054;28;20037;-76
2021/07/28 02:57:09;;;;;;;25.25;17.42;;;15.90;99.90;;;;;;5014835;28;20010;-76
2021/07/28 02:59:35;;;;;;;23.42;16.58;;;15.90;99.90;;;;;;5013908;28;20109;-78
2021/07/28 03:02:00;;;;;;;25.60;15.52;;;15.90;99.90;;;;;;5014156;28;20125;-75
2021/07/28 03:04:26;;;;;;;20.98;15.85;;;15.90;99.90;;;;;;5014657;28;20474;-77
2021/07/28 03:06:51;;;;;;;24.17;16.65;;;16.00;99.90;;;;;;5013212;28;20026;-79
2021/07/28 03:09:17;;;;;;;25.75;16.38;;;16.00;99.90;;;;;;5014551;28;20029;-76
2021/07/28 03:11:42;;;;;;;24.42;17.67;;;16.00;99.90;;;;;;5015557;28;20045;-76
2021/07/28 03:14:08;;;;;;;26.77;18.63;;;16.00;99.90;;;;;;5013703;28;20494;-76
2021/07/28 03:16:33;;;;;;;27.85;18.70;;;16.10;99.90;;;;;;5014172;28;20374;-75
2021/07/28 03:18:59;;;;;;;27.00;20.10;;;16.10;99.90;;;;;;5014309;28;20048;-75
2021/07/28 03:21:25;;;;;;;31.10;20.83;;;16.10;99.90;;;;;;5013738;28;20042;-75
2021/07/28 03:23:50;;;;;;;34.22;21.02;;;16.20;99.90;;;;;;5013475;28;20030;-76
2021/07/28 03:26:16;;;;;;;34.78;20.65;;;16.20;99.90;;;;;;5013604;28;20032;-75
2021/07/28 03:28:42;;;;;;;33.17;22.30;;;16.20;99.90;;;;;;5013151;28;20029;-74
2021/07/28 03:31:08;;;;;;;35.03;23.38;;;16.10;99.90;;;;;;5013573;28;20053;-76
2021/07/28 03:33:33;;;;;;;31.48;21.17;;;16.10;99.90;;;;;;5013471;28;20097;-76
2021/07/28 03:35:59;;;;;;;36.22;23.02;;;16.10;99.90;;;;;;5012276;28;20037;-76
2021/07/28 03:38:25;;;;;;;34.40;21.80;;;16.00;99.90;;;;;;5013148;28;20109;-76
2021/07/28 03:40:50;;;;;;;35.60;23.50;;;16.10;99.90;;;;;;5013193;28;20620;-75
2021/07/28 03:43:16;;;;;;;33.90;22.27;;;16.10;99.90;;;;;;5012833;28;20383;-76
2021/07/28 03:45:42;;;;;;;28.73;21.35;;;16.00;99.90;;;;;;5012807;28;20050;-75
2021/07/28 03:48:07;;;;;;;32.15;22.25;;;16.00;99.90;;;;;;5012816;28;20029;-76
2021/07/28 03:50:33;;;;;;;33.20;21.63;;;16.10;99.90;;;;;;5013720;28;20022;-75
2021/07/28 03:53:00;;;;;;;37.22;24.00;;;16.00;99.90;;;;;;5012808;28;20018;-76
2021/07/28 03:55:26;;;;;;;37.33;24.70;;;16.00;99.90;;;;;;5012881;28;20188;-76
2021/07/28 03:57:52;;;;;;;36.63;23.05;;;16.00;99.90;;;;;;5012803;28;20482;-77
2021/07/28 04:00:18;;;;;;;35.80;22.08;;;16.00;99.90;;;;;;5012822;28;20034;-76
2021/07/28 04:02:43;;;;;;;32.33;23.92;;;16.00;99.90;;;;;;5012263;28;20026;-76
2021/07/28 04:05:10;;;;;;;35.45;22.77;;;16.00;99.90;;;;;;5013131;28;20458;-76
2021/07/28 04:07:35;;;;;;;36.35;23.75;;;16.00;99.90;;;;;;5012802;28;20026;-76
2021/07/28 04:10:01;;;;;;;34.97;23.52;;;15.90;99.90;;;;;;5011887;28;20113;-78
2021/07/28 04:12:26;;;;;;;33.40;22.83;;;15.90;99.90;;;;;;5012007;28;20025;-77
2021/07/28 04:14:52;;;;;;;30.83;22.00;;;15.90;99.90;;;;;;5012754;28;20022;-77
2021/07/28 04:17:18;;;;;;;34.03;23.85;;;15.90;99.90;;;;;;5012288;28;20080;-77
2021/07/28 04:19:48;;;;;;;39.88;24.08;;;15.90;99.90;;;;;;5012842;28;20025;-77
2021/07/28 04:22:18;;;;;;;35.53;23.98;;;15.90;99.90;;;;;;5012730;28;20030;-77
2021/07/28 04:24:44;;;;;;;43.10;23.83;;;15.90;99.90;;;;;;5012065;28;20026;-77
2021/07/28 04:27:09;;;;;;;38.85;26.65;;;16.00;99.90;;;;;;5013110;28;20475;-77
2021/07/28 04:29:36;;;;;;;37.45;26.10;;;16.00;99.90;;;;;;5012860;28;20467;-77
2021/07/28 04:32:02;;;;;;;40.80;27.00;;;16.10;99.90;;;;;;5012700;28;20366;-76
2021/07/28 04:34:27;;;;;;;40.95;26.13;;;16.10;99.90;;;;;;5012854;28;20371;-76
2021/07/28 04:36:53;;;;;;;42.05;25.25;;;16.10;99.90;;;;;;5012738;28;20445;-78
2021/07/28 04:39:18;;;;;;;40.90;25.30;;;16.10;99.90;;;;;;5011898;28;20466;-76
2021/07/28 04:41:44;;;;;;;35.53;24.63;;;16.20;99.90;;;;;;5012229;28;20038;-76
2021/07/28 04:44:09;;;;;;;42.65;25.73;;;16.30;99.90;;;;;;5012522;28;20058;-77
2021/07/28 04:46:35;;;;;;;34.47;24.33;;;16.30;99.90;;;;;;5011680;28;20061;-76
2021/07/28 04:49:00;;;;;;;32.00;23.50;;;16.40;99.90;;;;;;5011952;28;20042;-77
2021/07/28 04:51:26;;;;;;;36.03;24.35;;;16.40;99.90;;;;;;5011670;28;20026;-78
2021/07/28 04:53:55;;;;;;;35.75;23.88;;;16.40;99.90;;;;;;5012605;28;20018;-77
2021/07/28 04:56:20;;;;;;;35.75;25.35;;;16.40;99.90;;;;;;5012823;28;20054;-76
2021/07/28 04:58:46;;;;;;;38.83;24.15;;;16.40;99.90;;;;;;5015205;28;20077;-76
2021/07/28 05:01:12;;;;;;;34.78;23.80;;;16.50;99.90;;;;;;5016133;28;20030;-75
2021/07/28 05:03:37;;;;;;;37.95;24.30;;;16.50;99.90;;;;;;5016144;28;20048;-76
2021/07/28 05:06:03;;;;;;;39.08;23.50;;;16.50;99.90;;;;;;5015439;28;20034;-76
2021/07/28 05:08:29;;;;;;;35.20;22.13;;;16.60;99.90;;;;;;5016026;28;20029;-75
2021/07/28 05:10:57;;;;;;;28.20;21.88;;;16.60;99.90;;;;;;5016137;28;20029;-76
2021/07/28 05:13:23;;;;;;;30.13;21.35;;;16.60;99.90;;;;;;5015062;28;20022;-77
2021/07/28 05:15:55;;;;;;;28.38;20.95;;;16.60;99.90;;;;;;5011741;28;20032;-77
2021/07/28 05:18:21;;;;;;;31.65;20.55;;;16.80;99.90;;;;;;5010474;28;20032;-77
2021/07/28 05:20:47;;;;;;;26.98;19.73;;;16.90;99.90;;;;;;5011521;28;20072;-76
2021/07/28 05:23:13;;;;;;;29.83;20.27;;;16.90;99.90;;;;;;5014046;28;20045;-77
2021/07/28 05:25:38;;;;;;;23.90;19.17;;;17.00;99.90;;;;;;5014857;28;20084;-77
2021/07/28 05:28:06;;;;;;;25.88;19.42;;;17.20;99.90;;;;;;5014222;28;20025;-76
2021/07/28 05:30:32;;;;;;;24.35;18.77;;;17.20;99.90;;;;;;5014570;28;20037;-77
2021/07/28 05:32:57;;;;;;;23.80;18.15;;;17.20;99.90;;;;;;5012613;28;20386;-77
2021/07/28 05:35:23;;;;;;;25.83;17.00;;;17.30;99.90;;;;;;5013708;28;20030;-79
2021/07/28 05:37:55;;;;;;;20.75;15.82;;;17.30;99.90;;;;;;5010866;28;20032;-77
2021/07/28 05:40:20;;;;;;;19.48;15.13;;;17.30;99.90;;;;;;5009253;28;20160;-76
2021/07/28 05:42:46;;;;;;;21.98;15.55;;;17.40;99.90;;;;;;4996352;28;20025;-76
2021/07/28 05:45:12;;;;;;;18.05;14.55;;;17.40;99.90;;;;;;4999949;28;20025;-76
2021/07/28 05:47:37;;;;;;;14.50;13.00;;;17.50;99.90;;;;;;4996156;28;20126;-78
2021/07/28 05:50:06;;;;;;;18.45;13.18;;;17.60;99.90;;;;;;5013347;28;20164;-75
2021/07/28 05:52:32;;;;;;;26.38;14.00;;;17.60;99.90;;;;;;5015881;28;20026;-76
2021/07/28 05:54:57;;;;;;;16.77;12.63;;;17.60;99.90;;;;;;5013488;28;20022;-76
2021/07/28 05:57:23;;;;;;;22.77;13.23;;;17.70;99.90;;;;;;5014671;28;20030;-76
2021/07/28 05:59:48;;;;;;;13.18;11.82;;;17.70;99.90;;;;;;5005325;28;20026;-77
2021/07/28 06:02:14;;;;;;;13.18;11.80;;;17.70;99.90;;;;;;4994715;28;20068;-77
2021/07/28 06:04:39;;;;;;;14.93;12.23;;;17.70;99.90;;;;;;5000079;28;20113;-77
2021/07/28 06:07:07;;;;;;;11.68;10.48;;;17.80;99.90;;;;;;5004728;28;20069;-76
2021/07/28 06:09:33;;;;;;;16.48;11.75;;;17.80;99.90;;;;;;4997235;28;20375;-76
2021/07/28 06:11:58;;;;;;;17.08;11.73;;;17.80;99.90;;;;;;5001229;28;20030;-75
2021/07/28 06:14:24;;;;;;;13.77;10.27;;;17.70;99.90;;;;;;4998371;28;20065;-76
2021/07/28 06:16:49;;;;;;;13.35;10.98;;;17.70;99.90;;;;;;4998366;28;20053;-75
2021/07/28 06:19:15;;;;;;;12.52;10.65;;;17.70;99.90;;;;;;4997611;28;20109;-76
2021/07/28 06:21:40;;;;;;;17.25;11.07;;;17.70;99.90;;;;;;4997054;28;20096;-75
2021/07/28 06:24:06;;;;;;;14.18;10.15;;;17.70;99.90;;;;;;4999347;28;20064;-76
2021/07/28 06:26:32;;;;;;;12.85;10.10;;;17.70;99.90;;;;;;4994535;28;20031;-76
2021/07/28 06:28:57;;;;;;;12.43;10.07;;;17.80;99.90;;;;;;5002276;28;20032;-75
2021/07/28 06:31:23;;;;;;;17.10;10.68;;;17.70;99.90;;;;;;4999807;28;20026;-76
2021/07/28 06:33:48;;;;;;;15.48;11.32;;;17.80;99.90;;;;;;5003310;28;20096;-76
2021/07/28 06:36:14;;;;;;;16.80;11.43;;;17.80;99.90;;;;;;4997301;28;20166;-76
2021/07/28 06:38:40;;;;;;;12.65;11.25;;;17.90;99.90;;;;;;5003356;28;20046;-76
2021/07/28 06:41:06;;;;;;;14.63;11.77;;;18.00;99.90;;;;;;4996930;28;20049;-77
2021/07/28 06:43:34;;;;;;;15.38;11.77;;;18.10;99.90;;;;;;4996427;28;20033;-76
2021/07/28 06:46:01;;;;;;;15.98;10.68;;;18.40;99.90;;;;;;4997222;28;20077;-77
2021/07/28 06:48:26;;;;;;;19.80;10.77;;;18.60;99.90;;;;;;4999906;28;20022;-76
2021/07/28 06:50:53;;;;;;;13.75;10.07;;;18.90;99.90;;;;;;4995650;28;20033;-76
2021/07/28 06:53:18;;;;;;;11.23;9.95;;;19.00;99.90;;;;;;5000308;28;20026;-76
2021/07/28 06:55:44;;;;;;;9.95;8.98;;;19.00;99.90;;;;;;5001041;28;20033;-75
2021/07/28 06:58:09;;;;;;;13.07;9.00;;;18.90;99.90;;;;;;4998155;28;20026;-75
2021/07/28 07:00:35;;;;;;;9.05;8.23;;;18.90;99.90;;;;;;5003347;28;20046;-80
2021/07/28 07:03:01;;;;;;;12.73;7.82;;;18.90;99.90;;;;;;4999641;28;20426;-79
2021/07/28 07:05:27;;;;;;;8.93;8.13;;;18.80;99.90;;;;;;4995138;28;20034;-80
2021/07/28 07:07:53;;;;;;;9.30;7.88;;;18.80;99.90;;;;;;5001785;28;20027;-79
2021/07/28 07:10:21;;;;;;;10.13;7.63;;;18.70;99.90;;;;;;5002149;28;20109;-80
2021/07/28 07:12:46;;;;;;;13.00;6.78;;;18.80;99.90;;;;;;4996952;28;20064;-80
2021/07/28 07:15:12;;;;;;;8.55;7.00;;;18.90;99.90;;;;;;5000115;28;20014;-80
2021/07/28 07:17:38;;;;;;;8.00;6.10;;;18.90;99.90;;;;;;5004250;28;20486;-80
2021/07/28 07:20:04;;;;;;;10.60;6.75;;;18.90;99.90;;;;;;4997802;28;20070;-82
2021/07/28 07:22:30;;;;;;;10.27;6.68;;;18.90;99.90;;;;;;5013414;28;20025;-82
2021/07/28 07:24:58;;;;;;;10.90;6.55;;;18.90;99.90;;;;;;5014707;28;20036;-82
2021/07/28 07:27:24;;;;;;;12.35;5.90;;;20.00;99.90;;;;;;5012671;28;20462;-82
2021/07/28 07:29:49;;;;;;;8.93;6.20;;;19.30;99.90;;;;;;5013564;28;20032;-83
2021/07/28 07:32:22;;;;;;;8.30;6.32;;;19.40;99.90;;;;;;5013193;28;20033;-83
2021/07/28 07:34:48;;;;;;;6.80;6.10;;;19.30;99.90;;;;;;5006095;28;20033;-82
2021/07/28 07:37:14;;;;;;;6.75;6.03;;;19.30;99.90;;;;;;5000421;28;20022;-82
2021/07/28 07:39:39;;;;;;;5.90;5.40;;;19.30;99.90;;;;;;4997764;28;20467;-81
2021/07/28 07:42:05;;;;;;;10.10;6.00;;;19.30;99.90;;;;;;5000791;28;20027;-81
2021/07/28 07:44:30;;;;;;;8.63;5.72;;;19.30;99.90;;;;;;4999651;28;20030;-81
2021/07/28 07:46:56;;;;;;;12.38;6.13;;;19.30;99.90;;;;;;4999313;28;20050;-81
2021/07/28 07:49:30;;;;;;;9.43;6.18;;;19.30;99.90;;;;;;5006930;28;20018;-81
2021/07/28 07:51:56;;;;;;;6.28;5.57;;;19.30;99.90;;;;;;5011152;28;20496;-81
2021/07/28 07:54:22;;;;;;;8.15;5.47;;;19.30;99.90;;;;;;5013886;28;20034;-80
2021/07/28 07:56:47;;;;;;;10.75;5.53;;;19.30;99.90;;;;;;5006578;28;20064;-81
2021/07/28 07:59:13;;;;;;;8.25;5.32;;;19.30;99.90;;;;;;5002096;28;20505;-80
2021/07/28 08:01:39;;;;;;;8.15;4.75;;;19.40;99.90;;;;;;5012483;28;20030;-82
2021/07/28 08:04:05;;;;;;;11.00;5.00;;;19.50;99.90;;;;;;5013557;28;20083;-77
2021/07/28 08:06:31;;;;;;;8.15;5.03;;;19.50;99.90;;;;;;5012959;28;20025;-80
2021/07/28 08:08:57;;;;;;;8.68;4.50;;;19.60;99.90;;;;;;5006666;28;20022;-81
2021/07/28 08:11:22;;;;;;;14.75;4.80;;;19.60;99.90;;;;;;5014223;28;20037;-80
2021/07/28 08:13:48;;;;;;;8.30;4.88;;;19.60;99.90;;;;;;5012647;28;20014;-81
2021/07/28 08:16:18;;;;;;;11.18;5.20;;;19.60;99.90;;;;;;5006318;28;20486;-81
2021/07/28 08:18:45;;;;;;;10.98;5.45;;;19.40;99.90;;;;;;5002448;28;20050;-81
2021/07/28 08:21:11;;;;;;;5.80;4.57;;;19.30;99.90;;;;;;5012638;28;20037;-82
2021/07/28 08:23:37;;;;;;;9.93;5.22;;;19.40;99.90;;;;;;4996142;28;20109;-81
2021/07/28 08:26:04;;;;;;;6.05;4.93;;;19.10;99.90;;;;;;5000850;28;20030;-81
2021/07/28 08:28:30;;;;;;;10.90;5.38;;;19.10;99.90;;;;;;5005238;28;20034;-81
2021/07/28 08:30:55;;;;;;;9.73;5.30;;;19.10;99.90;;;;;;5006339;28;20422;-80
2021/07/28 08:33:25;;;;;;;6.43;4.75;;;19.20;99.90;;;;;;5015684;28;20036;-81
2021/07/28 08:35:53;;;;;;;6.60;5.43;;;19.20;99.90;;;;;;5001257;28;20121;-83
2021/07/28 08:38:21;;;;;;;6.55;5.35;;;19.30;99.90;;;;;;5012041;28;20287;-81
2021/07/28 08:40:50;;;;;;;12.30;5.35;;;19.40;99.90;;;;;;5017792;28;20056;-81
2021/07/28 08:43:19;;;;;;;8.50;5.03;;;19.50;99.90;;;;;;5019282;28;20397;-81
2021/07/28 08:45:49;;;;;;;15.70;5.15;;;19.60;99.90;;;;;;5016699;28;20397;-81
2021/07/28 08:48:17;;;;;;;10.32;4.72;;;19.70;99.90;;;;;;5013356;28;20027;-77
2021/07/28 08:50:55;;;;;;;10.18;5.90;;;19.70;99.90;;;;;;5004885;28;20478;-77
2021/07/28 08:53:26;;;;;;;10.98;5.00;;;19.70;99.90;;;;;;5003694;28;20030;-77
2021/07/28 08:55:53;;;;;;;8.32;4.85;;;19.90;99.90;;;;;;5004801;28;20030;-78
2021/07/28 09:01:08;;;;;;;6.90;4.68;;;20.20;99.90;;;;;;5005193;28;20053;-77
2021/07/28 09:03:33;;;;;;;6.43;4.70;;;19.50;99.90;;;;;;5000976;28;20026;-78
2021/07/28 09:06:01;;;;;;;6.72;4.75;;;19.60;99.90;;;;;;5002590;28;20021;-77
2021/07/28 09:08:33;;;;;;;9.82;5.50;;;19.50;99.90;;;;;;5002964;28;20065;-78
2021/07/28 09:11:03;;;;;;;6.57;5.13;;;19.50;99.90;;;;;;5008270;28;20022;-77
2021/07/28 09:13:40;;;;;;;6.55;4.63;;;19.70;99.90;;;;;;5009318;28;20037;-78
2021/07/28 09:16:09;;;;;;;10.40;4.50;;;20.60;99.90;;;;;;5010760;28;20041;-77
2021/07/28 09:18:39;;;;;;;7.82;4.63;;;19.90;99.90;;;;;;5009563;28;20029;-78
2021/07/28 09:21:20;;;;;;;8.07;5.85;;;20.00;99.90;;;;;;5007882;28;20458;-77
2021/07/28 09:23:52;;;;;;;12.52;6.05;;;20.10;99.90;;;;;;5009470;28;20402;-77
2021/07/28 09:26:39;;;;;;;15.82;5.53;;;20.10;99.90;;;;;;5011982;28;20419;-77
2021/07/28 09:29:06;;;;;;;5.95;5.03;;;20.60;99.90;;;;;;5009994;28;20034;-77
2021/07/28 09:31:37;;;;;;;7.15;5.55;;;20.40;99.90;;;;;;5006866;28;20049;-78
2021/07/28 09:34:25;;;;;;;8.73;4.75;;;20.50;99.90;;;;;;5004053;28;20029;-77
2021/07/28 09:37:04;;;;;;;9.85;5.38;;;21.60;99.90;;;;;;5013663;28;20105;-77
2021/07/28 09:39:37;;;;;;;6.22;5.13;;;20.40;99.90;;;;;;5006859;28;20393;-78
2021/07/28 09:42:11;;;;;;;9.70;4.70;;;20.60;99.90;;;;;;5006827;28;20030;-74
2021/07/28 09:44:38;;;;;;;6.95;5.13;;;20.60;99.90;;;;;;5007882;28;20026;-77
2021/07/28 09:47:16;;;;;;;5.43;4.85;;;20.70;99.90;;;;;;5001510;28;20426;-77
2021/07/28 09:49:43;;;;;;;7.45;5.05;;;20.80;99.90;;;;;;5007216;28;20498;-77
2021/07/28 09:52:17;;;;;;;10.38;5.35;;;20.90;99.90;;;;;;5004688;28;20493;-77
2021/07/28 09:54:42;;;;;;;8.57;4.93;;;20.90;99.90;;;;;;5013066;28;20030;-78
2021/07/28 09:57:10;;;;;;;6.95;4.22;;;20.80;99.90;;;;;;5013936;28;20036;-78
2021/07/28 09:59:43;;;;;;;11.18;4.65;;;20.80;99.90;;;;;;5004172;28;20058;-78
2021/07/28 10:02:09;;;;;;;9.35;5.05;;;20.80;99.90;;;;;;5004573;28;20031;-77
2021/07/28 10:04:35;;;;;;;5.88;4.70;;;20.80;99.90;;;;;;5002636;28;20448;-76
2021/07/28 10:07:01;;;;;;;7.00;4.35;;;21.00;99.90;;;;;;5006547;28;20022;-77
2021/07/28 10:09:37;;;;;;;6.35;4.22;;;20.90;99.90;;;;;;5003045;28;20504;-77
2021/07/28 10:12:03;;;;;;;7.80;4.82;;;21.00;99.90;;;;;;5004542;28;20216;-76
2021/07/28 10:14:30;;;;;;;6.15;4.45;;;21.00;99.90;;;;;;5005888;28;20019;-75
2021/07/28 10:16:56;;;;;;;12.52;4.35;;;21.10;99.90;;;;;;5001726;28;20023;-76
2021/07/28 10:19:23;;;;;;;7.93;3.92;;;21.20;99.90;;;;;;5002459;28;20363;-77
2021/07/28 10:21:49;;;;;;;8.02;3.95;;;21.20;99.90;;;;;;5005477;28;20030;-77
2021/07/28 10:24:14;;;;;;;9.50;4.35;;;21.30;99.90;;;;;;5003491;28;20030;-78
2021/07/28 10:26:45;;;;;;;8.32;4.40;;;21.40;99.90;;;;;;4999343;28;20036;-77
2021/07/28 10:29:14;;;;;;;8.35;3.97;;;21.40;99.90;;;;;;5005864;28;20085;-76
2021/07/28 10:31:53;;;;;;;8.60;3.90;;;21.40;99.90;;;;;;5008687;28;20045;-78
2021/07/28 10:34:30;;;;;;;4.72;4.03;;;21.40;99.90;;;;;;5007184;28;20401;-77
2021/07/28 10:37:01;;;;;;;7.00;3.58;;;21.20;99.90;;;;;;5009544;28;20065;-76
2021/07/28 10:39:35;;;;;;;;;;;21.10;99.90;;;;;;5011575;28;20058;-76
2021/07/28 10:42:12;;;;;;;6.53;3.60;;;21.10;99.90;;;;;;5013387;28;19919;-77
2021/07/28 10:45:04;;;;;;;9.60;3.60;;;21.10;99.90;;;;;;5011795;28;20022;-76
2021/07/28 10:47:35;;;;;;;9.57;4.68;;;21.20;99.90;;;;;;5011102;28;20042;-78
2021/07/28 10:50:25;;;;;;;8.13;3.75;;;21.30;99.90;;;;;;5009277;28;20034;-76
2021/07/28 10:53:02;;;;;;;6.28;3.13;;;21.50;99.90;;;;;;5002103;28;20386;-78
2021/07/28 10:55:38;;;;;;;12.20;3.85;;;21.50;99.90;;;;;;5009830;28;20041;-78
2021/07/28 10:58:10;;;;;;;8.95;4.40;;;21.50;99.90;;;;;;5006435;28;20169;-77
2021/07/28 11:00:36;;;;;;;3.83;3.10;;;21.60;99.90;;;;;;5001453;28;20038;-78
2021/07/28 11:03:02;;;;;;;8.85;3.30;;;21.80;99.90;;;;;;5009472;28;20347;-78
2021/07/28 11:05:36;;;;;;;6.82;2.70;;;21.80;99.90;;;;;;5009037;28;20034;-77
2021/07/28 11:08:07;;;;;;;3.88;2.95;;;21.90;99.90;;;;;;5011685;28;20037;-77
2021/07/28 11:10:36;;;;;;;10.23;3.25;;;21.90;99.90;;;;;;5007046;28;20029;-76
2021/07/28 11:13:15;;;;;;;9.85;3.30;;;21.90;99.90;;;;;;5011101;28;20543;-76
2021/07/28 11:15:50;;;;;;;7.05;3.28;;;21.90;99.90;;;;;;5012520;28;20030;-77
2021/07/28 11:18:16;;;;;;;5.30;2.90;;;22.00;99.90;;;;;;5009064;28;20493;-76
2021/07/28 11:20:42;;;;;;;6.68;3.20;;;22.00;99.90;;;;;;5007741;28;20042;-77
2021/07/28 11:23:28;;;;;;;8.35;3.63;;;22.10;99.90;;;;;;5006004;28;20478;-76
2021/07/28 11:25:55;;;;;;;11.77;4.32;;;22.10;99.90;;;;;;5010343;28;20476;-76
2021/07/28 11:28:22;;;;;;;6.72;3.30;;;22.00;99.90;;;;;;5012196;28;20052;-77
2021/07/28 11:30:53;;;;;;;4.22;3.30;;;22.00;99.90;;;;;;5007761;28;20429;-77
2021/07/28 11:33:20;;;;;;;5.07;3.25;;;22.10;99.90;;;;;;5010277;28;20084;-77
2021/07/28 11:35:50;;;;;;;4.80;3.13;;;22.20;99.90;;;;;;5008171;28;20030;-77
2021/07/28 11:38:18;;;;;;;6.50;4.23;;;22.20;99.90;;;;;;5005910;28;20030;-78
2021/07/28 11:40:45;;;;;;;7.95;3.60;;;22.10;99.90;;;;;;5007508;28;20026;-76
2021/07/28 11:43:30;;;;;;;8.75;3.55;;;22.10;99.90;;;;;;5009001;28;20401;-78
2021/07/28 11:46:21;;;;;;;10.95;3.53;;;22.00;99.90;;;;;;5007661;28;20497;-78
2021/07/28 11:48:50;;;;;;;6.00;3.53;;;21.90;99.90;;;;;;5008497;28;20026;-77
2021/07/28 11:51:24;;;;;;;6.40;3.60;;;21.60;99.90;;;;;;5009404;28;20029;-76
2021/07/28 11:53:50;;;;;;;7.57;3.45;;;21.50;99.90;;;;;;5008668;28;20268;-76
2021/07/28 11:56:17;;;;;;;5.10;3.42;;;21.50;99.90;;;;;;5006502;28;20037;-77
2021/07/28 11:58:43;;;;;;;10.18;3.53;;;21.70;99.90;;;;;;5004575;28;20066;-76
2021/07/28 12:01:29;;;;;;;4.10;2.80;;;21.80;99.90;;;;;;5002230;28;20041;-76
2021/07/28 12:04:04;;;;;;;4.50;3.13;;;22.00;99.90;;;;;;4999823;28;20021;-77
2021/07/28 12:06:34;;;;;;;5.78;3.15;;;22.10;99.90;;;;;;5004214;28;20049;-76
2021/07/28 12:09:08;;;;;;;5.63;2.88;;;22.40;99.90;;;;;;4999922;28;20014;-78
2021/07/28 12:11:58;;;;;;;4.30;3.65;;;22.70;99.90;;;;;;5002899;28;20026;-77
2021/07/28 12:14:34;;;;;;;7.28;3.15;;;22.90;99.90;;;;;;5001604;28;20037;-78
2021/07/28 12:17:16;;;;;;;7.10;3.55;;;22.90;99.90;;;;;;5003255;28;20027;-77
2021/07/28 12:20:01;;;;;;;10.35;3.60;;;22.80;99.90;;;;;;5008080;28;20033;-76
2021/07/28 12:22:35;;;;;;;8.48;3.30;;;22.80;99.90;;;;;;5010879;28;20041;-77
2021/07/28 12:25:24;;;;;;;8.63;3.35;;;22.90;99.90;;;;;;5012163;28;20033;-77
2021/07/28 12:27:56;;;;;;;5.60;3.33;;;22.80;99.90;;;;;;5002684;28;20033;-77
2021/07/28 12:30:30;;;;;;;5.30;2.72;;;22.80;99.90;;;;;;5001834;28;20084;-79
2021/07/28 12:33:12;;;;;;;10.55;4.72;;;22.50;99.90;;;;;;4996880;28;20049;-76
2021/07/28 12:35:55;;;;;;;11.45;3.92;;;22.20;99.90;;;;;;4998994;28;20018;-76
2021/07/28 12:38:26;;;;;;;4.32;3.75;;;21.80;99.90;;;;;;5001407;28;20117;-77
2021/07/28 12:40:54;;;;;;;3.78;3.47;;;21.60;99.90;;;;;;4998045;28;20040;-76
2021/07/28 12:43:21;;;;;;;4.32;3.58;;;21.60;99.90;;;;;;5000789;28;20029;-76
2021/07/28 12:45:59;;;;;;;8.23;3.95;;;21.20;99.90;;;;;;5009087;28;20520;-76